CST,Max TemperatureF,Mean TemperatureF,Min TemperatureF,Max Dew PointF,MeanDew PointF,Min DewpointF,Max Humidity, Mean Humidity, Min Humidity, Max Sea Level PressureIn, Mean Sea Level PressureIn, Min Sea Level PressureIn, Max VisibilityMiles, Mean VisibilityMiles, Min VisibilityMiles, Max Wind SpeedMPH, Mean Wind SpeedMPH, Max Gust SpeedMPH,PrecipitationIn, CloudCover, Events, WindDirDegrees
2012-11-1,68,49,30,35,30,23,85,52,19,30.08,30.02,29.99,10,10,10,14,2,16,0.00,0,,287
2012-11-2,78,59,39,48,41,35,89,57,25,30.04,30.00,29.96,10,10,10,15,3,22,0.00,0,,278
2012-11-3,85,64,43,59,50,40,90,59,27,30.10,30.03,29.94,10,9,2,23,6,31,0.54,2,Rain-Thunderstorm,263
2012-11-4,64,53,41,59,42,35,90,67,43,30.15,30.10,30.02,10,10,10,10,5,15,0.00,1,,354
2012-11-5,59,48,36,45,38,33,92,66,40,30.14,30.07,30.01,10,9,6,10,2,14,0.04,4,Rain,81
2012-11-6,58,52,45,43,42,40,86,72,57,30.06,30.00,29.96,10,9,6,12,4,15,0.01,8,,321
2012-11-7,57,48,39,42,39,36,86,68,50,30.17,30.04,29.96,10,10,8,18,7,24,0.02,5,,315
2012-11-8,60,46,31,41,35,29,96,70,44,30.29,30.23,30.17,10,5,0,6,1,9,0.00,0,Fog,310
2012-11-9,70,52,33,42,36,30,96,64,31,30.32,30.24,30.18,10,4,0,8,3,12,0.00,0,Fog,153
2012-11-10,73,56,39,46,42,37,92,62,31,30.32,30.25,30.19,10,10,10,14,6,20,0.00,0,,146
2012-11-11,74,62,50,51,46,39,72,55,38,30.28,30.19,30.11,10,10,10,25,13,32,0.00,2,,154
2012-11-12,67,53,38,55,45,26,93,71,49,30.45,30.27,30.10,10,8,2,20,9,25,0.80,6,Rain-Thunderstorm,305
2012-11-13,54,44,33,28,25,23,75,54,32,30.51,30.44,30.38,10,10,10,14,6,21,0.00,0,,30
2012-11-14,57,47,37,34,31,26,64,54,43,30.41,30.34,30.29,10,10,10,13,5,15,0.00,1,,58
2012-11-15,62,46,30,38,30,24,92,59,25,30.36,30.31,30.26,10,9,2,9,2,13,0.00,0,,14
2012-11-16,64,47,30,34,29,24,89,56,23,30.39,30.35,30.31,10,10,7,10,4,15,0.00,0,,23
2012-11-17,64,47,30,36,32,27,85,58,30,30.47,30.40,30.37,10,10,7,8,1,13,0.00,0,,63
2012-11-18,65,48,30,37,32,28,92,62,31,30.45,30.39,30.32,10,7,1,10,2,14,0.00,0,,107
2012-11-19,67,51,34,45,39,31,92,68,44,30.36,30.28,30.21,10,9,7,7,1,9,0.00,1,,42
2012-11-20,70,56,41,46,42,39,93,63,33,30.22,30.16,30.10,10,9,6,10,2,14,0.00,3,,282
2012-11-21,71,56,40,48,42,37,89,64,39,30.23,30.19,30.13,10,8,2,8,2,21,0.00,0,,357
2012-11-22,73,53,32,47,37,30,96,64,31,30.27,30.22,30.15,10,4,0,9,2,13,0.00,2,Fog,191
2012-11-23,63,52,40,50,40,27,89,59,29,30.26,30.19,30.15,10,9,7,16,6,20,0.00,3,,312
2012-11-24,49,38,27,29,23,18,85,58,31,30.35,30.26,30.19,10,10,10,10,4,21,0.00,0,,341
2012-11-25,61,43,24,28,23,18,88,54,19,30.20,30.13,30.06,10,10,10,12,4,15,0.00,0,,178
2012-11-26,66,51,36,54,43,28,83,62,40,30.18,30.12,30.09,10,9,2,16,5,21,0.08,7,Rain,123
2012-11-27,55,47,39,54,40,31,93,77,61,30.37,30.25,30.11,10,8,2,15,7,21,0.07,7,Rain,13
2012-11-28,54,43,31,32,29,25,85,59,32,30.50,30.43,30.37,10,8,6,7,2,13,0.00,3,,24
2012-11-29,63,45,26,33,27,23,92,57,21,30.45,30.37,30.30,10,8,2,9,2,14,0.00,0,,162
2012-11-30,65,49,32,43,36,28,89,63,37,30.36,30.29,30.22,10,10,7,10,3,16,0.00,1,,195